Surčin Airstrip

RS-0011 · Central Serbia, Serbia

罗盘
风向 的 风向 的 风向 到 风向 310° Surčin Airstrip 12/30
风: 6 kt, 2 beaufort

6 kt

改变
0 ft 1.000 2.000 3.000 4.000 5.000
Cloud Cloud Cloud Cloud Cloud Cloud
BKN 1.000
Cloud Cloud Cloud Cloud Cloud Cloud
BKN 3.300
METAR LYBE 170830Z 31006KT 280V340 9999 -RA BKN010 BKN033 05/03 Q1004 NOSIG

METAR Surčin Airstrip - RS-0011

Surčin Airstrip是,Serbia中的小机场。 该机场位于纬度44,76871和经度20,30525。 该机场有一条跑道: 12/30. 这个机场没有ICAO代码,我们使用RS-0011作为参考。 机场在Beograd FIR中。

该航空气象观测是针对貝爾格勒國際機場在2024年4月17日 10:30, 当地时间进行的。

机场观察

风向为310°,速度为6 kt。 风向在280°和340°之间变化。

可见度为10 km 或者更多。

有碎云在1.000 ft的高度 和 碎云在3.300 ft的高度。 破损或更高的上限为1.000 ft。

当前天气为光 雨。 温度为5 °C,阵风为1 °C。 露点为3 °C,相对湿度为87%。 海平面上的气压为1004 hPa (QNH)。

白天

今天,太阳从05:49升起,在19:26降落。 这适用于Surčin Airstrip,世界夏令时可能有所不同。 当地时间与世界标准时间之间的时差为+2 小时。 夏令时目前正在进行中。

公司介绍

我们没有关于这个机场的公司信息。

体会

到Vliegles.nl去找飞行课程,跳伞和其他飞行体验。 浏览页面,了解Surčin Airstrip附近所有可用的活动。 你也可以使用搜索功能来寻找你所在地附近的特定飞行课程、跳伞或其他飞行体验。

跑道

Id 标题 侧风 逆风 侧风 %
12/30 130°-310° 6 kt 0 %

逆风成分最大的方向会被突出显示,并用于横风计算。 这并不一定意味着这个方向在使用。

乌云

1.000 ft BKN 碎云
3.300 ft BKN 碎云

温度 & 天气

天气 光 雨
温度 5 °C
露点 3 °C
相对湿度 87%
风寒 1 °C
Kp-index 1 (0-9)

白天

日出
05:49
中午
12:38
日落
19:26 (8:46)

小工具

你想在你的网站上有一个关于Surčin Airstrip的当前航空天气(METAR)的小部件吗?

显示HTML代码
报告变更